sensor_id;sensor_type;location;lat;lon;timestamp;P1;durP1;ratioP1;P2;durP2;ratioP2
4959;SDS011;2495;48.200;11.532;2022-09-30T00:57:28;1.43;;;1.33;;
4959;SDS011;2495;48.200;11.532;2022-09-30T02:28:54;1.80;;;1.70;;
4959;SDS011;2495;48.200;11.532;2022-09-30T02:34:28;1.80;;;1.70;;
4959;SDS011;2495;48.200;11.532;2022-09-30T03:51:36;1.50;;;1.00;;
4959;SDS011;2495;48.200;11.532;2022-09-30T03:57:34;1.90;;;1.80;;
4959;SDS011;2495;48.200;11.532;2022-09-30T04:02:37;1.80;;;1.70;;
4959;SDS011;2495;48.200;11.532;2022-09-30T04:07:38;2.20;;;2.10;;
4959;SDS011;2495;48.200;11.532;2022-09-30T04:12:40;1.90;;;1.80;;
4959;SDS011;2495;48.200;11.532;2022-09-30T04:17:44;2.00;;;1.90;;
4959;SDS011;2495;48.200;11.532;2022-09-30T04:22:45;2.20;;;2.10;;
4959;SDS011;2495;48.200;11.532;2022-09-30T04:27:46;2.00;;;1.90;;
4959;SDS011;2495;48.200;11.532;2022-09-30T04:32:48;2.50;;;2.07;;
4959;SDS011;2495;48.200;11.532;2022-09-30T04:37:55;4.90;;;2.33;;
4959;SDS011;2495;48.200;11.532;2022-09-30T04:42:56;2.70;;;2.53;;
4959;SDS011;2495;48.200;11.532;2022-09-30T04:47:57;3.07;;;2.87;;
4959;SDS011;2495;48.200;11.532;2022-09-30T04:52:59;2.00;;;1.90;;
4959;SDS011;2495;48.200;11.532;2022-09-30T04:58:00;2.00;;;1.90;;
4959;SDS011;2495;48.200;11.532;2022-09-30T05:03:01;2.10;;;2.00;;
4959;SDS011;2495;48.200;11.532;2022-09-30T05:19:19;2.10;;;2.00;;
4959;SDS011;2495;48.200;11.532;2022-09-30T05:24:22;2.40;;;2.30;;
4959;SDS011;2495;48.200;11.532;2022-09-30T05:29:24;1.90;;;1.80;;
4959;SDS011;2495;48.200;11.532;2022-09-30T05:34:25;1.20;;;0.90;;
4959;SDS011;2495;48.200;11.532;2022-09-30T05:57:04;2.07;;;1.97;;
4959;SDS011;2495;48.200;11.532;2022-09-30T06:56:39;1.40;;;1.30;;
4959;SDS011;2495;48.200;11.532;2022-09-30T07:39:11;1.40;;;1.30;;
4959;SDS011;2495;48.200;11.532;2022-09-30T07:44:47;1.20;;;1.10;;
4959;SDS011;2495;48.200;11.532;2022-09-30T07:50:20;1.10;;;0.90;;
4959;SDS011;2495;48.200;11.532;2022-09-30T07:55:39;1.13;;;1.00;;
4959;SDS011;2495;48.200;11.532;2022-09-30T08:01:22;1.73;;;1.53;;
4959;SDS011;2495;48.200;11.532;2022-09-30T08:06:25;1.10;;;0.90;;
4959;SDS011;2495;48.200;11.532;2022-09-30T08:11:31;1.00;;;0.80;;
4959;SDS011;2495;48.200;11.532;2022-09-30T08:16:29;12.43;;;2.40;;
4959;SDS011;2495;48.200;11.532;2022-09-30T08:21:31;1.27;;;1.17;;
4959;SDS011;2495;48.200;11.532;2022-09-30T08:26:33;1.20;;;1.10;;
4959;SDS011;2495;48.200;11.532;2022-09-30T10:03:40;1.10;;;1.00;;
4959;SDS011;2495;48.200;11.532;2022-09-30T10:09:34;1.10;;;0.90;;
4959;SDS011;2495;48.200;11.532;2022-09-30T21:45:27;5.80;;;0.90;;
4959;SDS011;2495;48.200;11.532;2022-09-30T21:50:35;1.00;;;0.60;;
4959;SDS011;2495;48.200;11.532;2022-09-30T21:55:36;1.00;;;0.60;;
4959;SDS011;2495;48.200;11.532;2022-09-30T22:00:37;1.00;;;0.60;;
4959;SDS011;2495;48.200;11.532;2022-09-30T22:05:38;1.00;;;0.60;;
4959;SDS011;2495;48.200;11.532;2022-09-30T22:10:41;1.00;;;0.60;;
4959;SDS011;2495;48.200;11.532;2022-09-30T22:15:45;1.00;;;0.60;;
4959;SDS011;2495;48.200;11.532;2022-09-30T22:20:46;1.00;;;0.60;;
4959;SDS011;2495;48.200;11.532;2022-09-30T22:25:47;1.20;;;0.93;;
4959;SDS011;2495;48.200;11.532;2022-09-30T22:30:49;1.10;;;0.93;;
4959;SDS011;2495;48.200;11.532;2022-09-30T22:35:50;1.00;;;0.60;;
4959;SDS011;2495;48.200;11.532;2022-09-30T22:41:10;1.00;;;0.50;;
4959;SDS011;2495;48.200;11.532;2022-09-30T22:46:12;1.00;;;0.60;;
4959;SDS011;2495;48.200;11.532;2022-09-30T22:51:14;1.10;;;0.80;;
4959;SDS011;2495;48.200;11.532;2022-09-30T22:56:14;1.00;;;0.60;;
4959;SDS011;2495;48.200;11.532;2022-09-30T23:01:19;2.10;;;1.53;;
4959;SDS011;2495;48.200;11.532;2022-09-30T23:06:21;1.00;;;0.60;;
4959;SDS011;2495;48.200;11.532;2022-09-30T23:11:25;2.87;;;1.97;;
4959;SDS011;2495;48.200;11.532;2022-09-30T23:16:26;1.10;;;0.80;;
4959;SDS011;2495;48.200;11.532;2022-09-30T23:21:28;1.00;;;0.60;;
4959;SDS011;2495;48.200;11.532;2022-09-30T23:26:29;1.00;;;0.50;;
4959;SDS011;2495;48.200;11.532;2022-09-30T23:31:30;1.00;;;0.60;;
4959;SDS011;2495;48.200;11.532;2022-09-30T23:36:33;1.00;;;0.60;;
4959;SDS011;2495;48.200;11.532;2022-09-30T23:41:33;1.00;;;0.60;;
4959;SDS011;2495;48.200;11.532;2022-09-30T23:46:34;1.00;;;0.60;;
4959;SDS011;2495;48.200;11.532;2022-09-30T23:51:36;1.00;;;0.60;;
4959;SDS011;2495;48.200;11.532;2022-09-30T23:56:37;1.00;;;0.60;;
